sensor_id;sensor_type;location;lat;lon;timestamp;temperature;humidity
10447;DHT22;5271;44.422;26.092;2023-02-16T00:01:19;12.20;77.50
10447;DHT22;5271;44.422;26.092;2023-02-16T00:03:47;12.20;77.60
10447;DHT22;5271;44.422;26.092;2023-02-16T00:06:14;12.10;77.60
10447;DHT22;5271;44.422;26.092;2023-02-16T00:08:43;12.10;77.70
10447;DHT22;5271;44.422;26.092;2023-02-16T00:11:18;12.10;77.60
10447;DHT22;5271;44.422;26.092;2023-02-16T00:14:04;12.00;78.00
10447;DHT22;5271;44.422;26.092;2023-02-16T00:16:33;12.00;77.90
10447;DHT22;5271;44.422;26.092;2023-02-16T00:19:00;12.00;78.00
10447;DHT22;5271;44.422;26.092;2023-02-16T00:21:27;12.00;78.10
10447;DHT22;5271;44.422;26.092;2023-02-16T00:23:54;11.90;78.80
10447;DHT22;5271;44.422;26.092;2023-02-16T00:26:24;11.70;79.00
10447;DHT22;5271;44.422;26.092;2023-02-16T00:28:52;11.70;79.60
10447;DHT22;5271;44.422;26.092;2023-02-16T00:31:23;11.60;79.30
10447;DHT22;5271;44.422;26.092;2023-02-16T00:33:52;11.60;79.40
10447;DHT22;5271;44.422;26.092;2023-02-16T00:36:18;11.50;79.80
10447;DHT22;5271;44.422;26.092;2023-02-16T00:38:45;11.50;79.60
10447;DHT22;5271;44.422;26.092;2023-02-16T00:41:15;11.60;79.90
10447;DHT22;5271;44.422;26.092;2023-02-16T00:44:01;11.60;79.60
10447;DHT22;5271;44.422;26.092;2023-02-16T00:46:28;11.60;79.30
10447;DHT22;5271;44.422;26.092;2023-02-16T00:48:55;11.60;79.40
10447;DHT22;5271;44.422;26.092;2023-02-16T00:51:22;11.50;79.40
10447;DHT22;5271;44.422;26.092;2023-02-16T00:53:49;11.50;79.60
10447;DHT22;5271;44.422;26.092;2023-02-16T00:56:17;11.50;79.70
10447;DHT22;5271;44.422;26.092;2023-02-16T00:58:47;11.50;79.80
10447;DHT22;5271;44.422;26.092;2023-02-16T01:01:19;11.40;79.60
10447;DHT22;5271;44.422;26.092;2023-02-16T01:03:47;11.50;79.70
10447;DHT22;5271;44.422;26.092;2023-02-16T01:06:14;11.50;79.50
10447;DHT22;5271;44.422;26.092;2023-02-16T01:09:08;11.50;79.50
10447;DHT22;5271;44.422;26.092;2023-02-16T01:11:54;11.40;79.50
10447;DHT22;5271;44.422;26.092;2023-02-16T01:14:21;11.30;79.20
10447;DHT22;5271;44.422;26.092;2023-02-16T01:16:50;11.30;79.80
10447;DHT22;5271;44.422;26.092;2023-02-16T01:19:17;11.20;79.90
10447;DHT22;5271;44.422;26.092;2023-02-16T01:21:44;11.20;80.20
10447;DHT22;5271;44.422;26.092;2023-02-16T01:24:11;11.20;79.90
10447;DHT22;5271;44.422;26.092;2023-02-16T01:26:40;11.20;79.90
10447;DHT22;5271;44.422;26.092;2023-02-16T01:29:12;11.20;80.00
10447;DHT22;5271;44.422;26.092;2023-02-16T01:31:39;11.10;79.80
10447;DHT22;5271;44.422;26.092;2023-02-16T01:34:08;11.10;79.70
10447;DHT22;5271;44.422;26.092;2023-02-16T01:36:36;11.00;80.20
10447;DHT22;5271;44.422;26.092;2023-02-16T01:39:05;11.00;80.20
10447;DHT22;5271;44.422;26.092;2023-02-16T01:41:43;11.00;80.30
10447;DHT22;5271;44.422;26.092;2023-02-16T01:44:13;11.00;80.50
10447;DHT22;5271;44.422;26.092;2023-02-16T01:46:44;11.00;80.10
10447;DHT22;5271;44.422;26.092;2023-02-16T01:49:18;10.90;80.20
10447;DHT22;5271;44.422;26.092;2023-02-16T01:51:54;10.90;80.60
10447;DHT22;5271;44.422;26.092;2023-02-16T01:54:31;10.80;80.90
10447;DHT22;5271;44.422;26.092;2023-02-16T01:57:03;10.80;80.80
10447;DHT22;5271;44.422;26.092;2023-02-16T01:59:39;10.80;80.70
10447;DHT22;5271;44.422;26.092;2023-02-16T02:02:12;10.80;80.70
10447;DHT22;5271;44.422;26.092;2023-02-16T02:04:45;10.90;80.60
10447;DHT22;5271;44.422;26.092;2023-02-16T02:07:38;10.90;80.40
10447;DHT22;5271;44.422;26.092;2023-02-16T02:10:10;10.80;80.30
10447;DHT22;5271;44.422;26.092;2023-02-16T02:12:44;10.90;80.30
10447;DHT22;5271;44.422;26.092;2023-02-16T02:15:14;10.90;80.10
10447;DHT22;5271;44.422;26.092;2023-02-16T02:17:42;10.80;80.30
10447;DHT22;5271;44.422;26.092;2023-02-16T02:20:15;10.80;80.40
10447;DHT22;5271;44.422;26.092;2023-02-16T02:29:32;10.60;80.10
10447;DHT22;5271;44.422;26.092;2023-02-16T02:32:08;10.60;80.70
10447;DHT22;5271;44.422;26.092;2023-02-16T02:34:48;10.50;80.30
10447;DHT22;5271;44.422;26.092;2023-02-16T02:37:21;10.30;80.90
10447;DHT22;5271;44.422;26.092;2023-02-16T02:40:00;10.30;81.10
10447;DHT22;5271;44.422;26.092;2023-02-16T02:42:32;10.30;81.40
10447;DHT22;5271;44.422;26.092;2023-02-16T02:45:07;10.20;81.40
10447;DHT22;5271;44.422;26.092;2023-02-16T02:47:37;10.30;81.20
10447;DHT22;5271;44.422;26.092;2023-02-16T02:50:27;10.30;81.20
10447;DHT22;5271;44.422;26.092;2023-02-16T02:53:01;10.30;81.20
10447;DHT22;5271;44.422;26.092;2023-02-16T02:55:32;10.30;81.00
10447;DHT22;5271;44.422;26.092;2023-02-16T02:58:19;10.20;81.10
10447;DHT22;5271;44.422;26.092;2023-02-16T03:01:09;10.30;81.10
10447;DHT22;5271;44.422;26.092;2023-02-16T03:03:40;10.20;80.70
10447;DHT22;5271;44.422;26.092;2023-02-16T03:06:14;10.20;80.60
10447;DHT22;5271;44.422;26.092;2023-02-16T03:08:45;10.10;80.80
10447;DHT22;5271;44.422;26.092;2023-02-16T03:11:16;10.00;80.80
10447;DHT22;5271;44.422;26.092;2023-02-16T03:14:04;10.00;80.90
10447;DHT22;5271;44.422;26.092;2023-02-16T03:16:37;9.90;80.80
10447;DHT22;5271;44.422;26.092;2023-02-16T03:19:07;9.80;81.40
10447;DHT22;5271;44.422;26.092;2023-02-16T03:21:54;9.80;81.80
10447;DHT22;5271;44.422;26.092;2023-02-16T03:24:39;9.80;81.60
10447;DHT22;5271;44.422;26.092;2023-02-16T03:27:27;9.80;81.60
10447;DHT22;5271;44.422;26.092;2023-02-16T03:30:14;9.80;81.50
10447;DHT22;5271;44.422;26.092;2023-02-16T03:32:44;9.80;82.10
10447;DHT22;5271;44.422;26.092;2023-02-16T03:35:11;9.80;81.50
10447;DHT22;5271;44.422;26.092;2023-02-16T03:37:39;9.70;81.70
10447;DHT22;5271;44.422;26.092;2023-02-16T03:40:08;9.70;81.60
10447;DHT22;5271;44.422;26.092;2023-02-16T03:42:55;9.70;81.70
10447;DHT22;5271;44.422;26.092;2023-02-16T03:45:23;9.70;81.70
10447;DHT22;5271;44.422;26.092;2023-02-16T03:47:52;9.70;82.10
10447;DHT22;5271;44.422;26.092;2023-02-16T03:50:18;9.70;81.70
10447;DHT22;5271;44.422;26.092;2023-02-16T03:52:46;9.70;81.60
10447;DHT22;5271;44.422;26.092;2023-02-16T03:55:13;9.70;81.90
10447;DHT22;5271;44.422;26.092;2023-02-16T03:57:40;9.60;81.80
10447;DHT22;5271;44.422;26.092;2023-02-16T04:00:07;9.60;81.90
10447;DHT22;5271;44.422;26.092;2023-02-16T04:02:35;9.60;82.00
10447;DHT22;5271;44.422;26.092;2023-02-16T04:05:03;9.70;81.90
10447;DHT22;5271;44.422;26.092;2023-02-16T04:07:30;9.60;81.90
10447;DHT22;5271;44.422;26.092;2023-02-16T04:09:57;9.60;81.60
10447;DHT22;5271;44.422;26.092;2023-02-16T04:12:24;9.60;81.90
10447;DHT22;5271;44.422;26.092;2023-02-16T04:15:06;9.60;82.10
10447;DHT22;5271;44.422;26.092;2023-02-16T04:17:34;9.50;81.60
10447;DHT22;5271;44.422;26.092;2023-02-16T04:20:01;9.50;82.00
10447;DHT22;5271;44.422;26.092;2023-02-16T04:22:29;9.50;82.60
10447;DHT22;5271;44.422;26.092;2023-02-16T04:24:56;9.50;82.60
10447;DHT22;5271;44.422;26.092;2023-02-16T04:27:23;9.40;82.10
10447;DHT22;5271;44.422;26.092;2023-02-16T04:29:50;9.40;82.60
10447;DHT22;5271;44.422;26.092;2023-02-16T04:32:17;9.40;83.20
10447;DHT22;5271;44.422;26.092;2023-02-16T04:34:43;9.40;82.70
10447;DHT22;5271;44.422;26.092;2023-02-16T04:37:10;9.30;82.50
10447;DHT22;5271;44.422;26.092;2023-02-16T04:39:39;9.30;82.70
10447;DHT22;5271;44.422;26.092;2023-02-16T04:42:05;9.30;83.00
10447;DHT22;5271;44.422;26.092;2023-02-16T04:44:32;9.30;83.10
10447;DHT22;5271;44.422;26.092;2023-02-16T04:46:59;9.30;82.90
10447;DHT22;5271;44.422;26.092;2023-02-16T04:49:26;9.30;82.90
10447;DHT22;5271;44.422;26.092;2023-02-16T04:51:53;9.30;83.30
10447;DHT22;5271;44.422;26.092;2023-02-16T04:54:20;9.20;82.90
10447;DHT22;5271;44.422;26.092;2023-02-16T04:56:48;9.30;82.90
10447;DHT22;5271;44.422;26.092;2023-02-16T04:59:15;9.30;82.70
10447;DHT22;5271;44.422;26.092;2023-02-16T05:01:42;9.30;82.60
10447;DHT22;5271;44.422;26.092;2023-02-16T05:04:09;9.30;83.30
10447;DHT22;5271;44.422;26.092;2023-02-16T05:06:37;9.30;82.80
10447;DHT22;5271;44.422;26.092;2023-02-16T05:09:05;9.30;82.50
10447;DHT22;5271;44.422;26.092;2023-02-16T05:11:32;9.20;82.60
10447;DHT22;5271;44.422;26.092;2023-02-16T05:14:20;9.20;82.90
10447;DHT22;5271;44.422;26.092;2023-02-16T05:17:05;9.10;82.80
10447;DHT22;5271;44.422;26.092;2023-02-16T05:19:32;9.00;82.50
10447;DHT22;5271;44.422;26.092;2023-02-16T05:21:58;8.90;82.90
10447;DHT22;5271;44.422;26.092;2023-02-16T05:24:25;8.80;83.30
10447;DHT22;5271;44.422;26.092;2023-02-16T05:26:52;8.80;83.30
10447;DHT22;5271;44.422;26.092;2023-02-16T05:29:21;8.90;83.50
10447;DHT22;5271;44.422;26.092;2023-02-16T05:31:48;8.80;83.20
10447;DHT22;5271;44.422;26.092;2023-02-16T05:34:14;8.90;83.40
10447;DHT22;5271;44.422;26.092;2023-02-16T05:36:41;8.90;83.30
10447;DHT22;5271;44.422;26.092;2023-02-16T05:39:08;8.90;83.20
10447;DHT22;5271;44.422;26.092;2023-02-16T05:41:35;8.90;83.10
10447;DHT22;5271;44.422;26.092;2023-02-16T05:44:03;8.80;83.00
10447;DHT22;5271;44.422;26.092;2023-02-16T05:46:34;8.80;82.70
10447;DHT22;5271;44.422;26.092;2023-02-16T05:49:02;8.60;83.00
10447;DHT22;5271;44.422;26.092;2023-02-16T05:51:29;8.50;83.60
10447;DHT22;5271;44.422;26.092;2023-02-16T05:53:56;8.50;83.80
10447;DHT22;5271;44.422;26.092;2023-02-16T05:56:24;8.50;83.80
10447;DHT22;5271;44.422;26.092;2023-02-16T05:58:51;8.60;84.00
10447;DHT22;5271;44.422;26.092;2023-02-16T06:01:19;8.60;83.80
10447;DHT22;5271;44.422;26.092;2023-02-16T06:03:47;8.70;83.60
10447;DHT22;5271;44.422;26.092;2023-02-16T06:06:14;8.70;83.30
10447;DHT22;5271;44.422;26.092;2023-02-16T06:08:41;8.70;83.30
10447;DHT22;5271;44.422;26.092;2023-02-16T06:11:08;8.70;82.90
10447;DHT22;5271;44.422;26.092;2023-02-16T06:13:56;8.70;83.10
10447;DHT22;5271;44.422;26.092;2023-02-16T06:16:24;8.60;82.70
10447;DHT22;5271;44.422;26.092;2023-02-16T06:18:53;8.50;83.00
10447;DHT22;5271;44.422;26.092;2023-02-16T06:21:20;8.40;83.30
10447;DHT22;5271;44.422;26.092;2023-02-16T06:23:48;8.40;83.20
10447;DHT22;5271;44.422;26.092;2023-02-16T06:26:15;8.40;83.10
10447;DHT22;5271;44.422;26.092;2023-02-16T06:28:43;8.40;83.70
10447;DHT22;5271;44.422;26.092;2023-02-16T06:31:10;8.40;83.20
10447;DHT22;5271;44.422;26.092;2023-02-16T06:33:37;8.30;83.30
10447;DHT22;5271;44.422;26.092;2023-02-16T06:36:06;8.20;83.60
10447;DHT22;5271;44.422;26.092;2023-02-16T06:38:33;8.20;83.80
10447;DHT22;5271;44.422;26.092;2023-02-16T06:41:01;8.30;83.70
10447;DHT22;5271;44.422;26.092;2023-02-16T06:43:27;8.20;83.80
10447;DHT22;5271;44.422;26.092;2023-02-16T06:45:54;8.20;84.00
10447;DHT22;5271;44.422;26.092;2023-02-16T06:48:21;8.10;84.50
10447;DHT22;5271;44.422;26.092;2023-02-16T06:50:48;8.20;84.10
10447;DHT22;5271;44.422;26.092;2023-02-16T06:53:16;8.20;84.20
10447;DHT22;5271;44.422;26.092;2023-02-16T06:55:43;8.20;83.90
10447;DHT22;5271;44.422;26.092;2023-02-16T06:58:10;8.30;84.00
10447;DHT22;5271;44.422;26.092;2023-02-16T07:00:38;8.30;83.90
10447;DHT22;5271;44.422;26.092;2023-02-16T07:03:04;8.40;83.70
10447;DHT22;5271;44.422;26.092;2023-02-16T07:05:31;8.40;83.50
10447;DHT22;5271;44.422;26.092;2023-02-16T07:07:58;8.50;83.30
10447;DHT22;5271;44.422;26.092;2023-02-16T07:10:26;8.50;83.00
10447;DHT22;5271;44.422;26.092;2023-02-16T07:12:54;8.50;83.00
10447;DHT22;5271;44.422;26.092;2023-02-16T07:15:21;8.40;82.50
10447;DHT22;5271;44.422;26.092;2023-02-16T07:17:48;8.40;83.00
10447;DHT22;5271;44.422;26.092;2023-02-16T07:20:16;8.50;83.60
10447;DHT22;5271;44.422;26.092;2023-02-16T07:22:43;8.60;83.70
10447;DHT22;5271;44.422;26.092;2023-02-16T07:25:10;8.80;83.70
10447;DHT22;5271;44.422;26.092;2023-02-16T07:27:38;9.10;83.20
10447;DHT22;5271;44.422;26.092;2023-02-16T07:30:06;9.30;83.00
10447;DHT22;5271;44.422;26.092;2023-02-16T07:32:35;9.60;83.30
10447;DHT22;5271;44.422;26.092;2023-02-16T07:35:02;9.80;82.60
10447;DHT22;5271;44.422;26.092;2023-02-16T07:37:29;10.00;82.30
10447;DHT22;5271;44.422;26.092;2023-02-16T07:39:56;10.30;81.20
10447;DHT22;5271;44.422;26.092;2023-02-16T07:42:23;10.40;80.40
10447;DHT22;5271;44.422;26.092;2023-02-16T07:44:51;10.60;80.30
10447;DHT22;5271;44.422;26.092;2023-02-16T07:47:18;10.60;78.90
10447;DHT22;5271;44.422;26.092;2023-02-16T07:49:45;10.60;79.20
10447;DHT22;5271;44.422;26.092;2023-02-16T07:52:12;10.80;79.70
10447;DHT22;5271;44.422;26.092;2023-02-16T07:54:39;11.20;79.40
10447;DHT22;5271;44.422;26.092;2023-02-16T07:57:05;11.60;78.50
10447;DHT22;5271;44.422;26.092;2023-02-16T07:59:32;12.00;77.50
10447;DHT22;5271;44.422;26.092;2023-02-16T08:02:01;12.20;77.10
10447;DHT22;5271;44.422;26.092;2023-02-16T08:04:27;12.50;77.00
10447;DHT22;5271;44.422;26.092;2023-02-16T08:06:54;12.70;76.00
10447;DHT22;5271;44.422;26.092;2023-02-16T08:09:21;13.00;75.90
10447;DHT22;5271;44.422;26.092;2023-02-16T08:11:48;13.10;74.10
10447;DHT22;5271;44.422;26.092;2023-02-16T08:14:15;13.10;74.30
10447;DHT22;5271;44.422;26.092;2023-02-16T08:16:42;13.40;74.60
10447;DHT22;5271;44.422;26.092;2023-02-16T08:19:10;13.60;73.60
10447;DHT22;5271;44.422;26.092;2023-02-16T08:21:38;13.80;73.60
10447;DHT22;5271;44.422;26.092;2023-02-16T08:24:07;13.80;73.10
10447;DHT22;5271;44.422;26.092;2023-02-16T08:26:35;13.90;72.70
10447;DHT22;5271;44.422;26.092;2023-02-16T08:29:05;14.00;73.10
10447;DHT22;5271;44.422;26.092;2023-02-16T08:31:35;14.30;72.80
10447;DHT22;5271;44.422;26.092;2023-02-16T08:34:03;14.50;72.60
10447;DHT22;5271;44.422;26.092;2023-02-16T08:36:33;14.80;72.10
10447;DHT22;5271;44.422;26.092;2023-02-16T08:39:02;15.10;70.20
10447;DHT22;5271;44.422;26.092;2023-02-16T08:41:31;15.20;70.90
10447;DHT22;5271;44.422;26.092;2023-02-16T08:43:59;15.40;70.70
10447;DHT22;5271;44.422;26.092;2023-02-16T08:46:27;15.60;69.20
10447;DHT22;5271;44.422;26.092;2023-02-16T08:48:55;15.80;69.40
10447;DHT22;5271;44.422;26.092;2023-02-16T08:51:25;16.00;69.10
10447;DHT22;5271;44.422;26.092;2023-02-16T08:53:54;16.20;68.40
10447;DHT22;5271;44.422;26.092;2023-02-16T08:56:21;16.70;68.10
10447;DHT22;5271;44.422;26.092;2023-02-16T08:58:48;17.00;67.60
10447;DHT22;5271;44.422;26.092;2023-02-16T09:01:15;17.20;65.30
10447;DHT22;5271;44.422;26.092;2023-02-16T09:03:44;17.30;66.40
10447;DHT22;5271;44.422;26.092;2023-02-16T09:06:12;17.60;66.30
10447;DHT22;5271;44.422;26.092;2023-02-16T09:08:40;18.10;64.00
10447;DHT22;5271;44.422;26.092;2023-02-16T09:11:11;18.20;61.40
10447;DHT22;5271;44.422;26.092;2023-02-16T09:13:39;17.70;62.20
10447;DHT22;5271;44.422;26.092;2023-02-16T09:16:08;17.30;63.50
10447;DHT22;5271;44.422;26.092;2023-02-16T09:18:36;17.30;65.00
10447;DHT22;5271;44.422;26.092;2023-02-16T09:21:04;17.60;65.80
10447;DHT22;5271;44.422;26.092;2023-02-16T09:23:32;18.00;65.70
10447;DHT22;5271;44.422;26.092;2023-02-16T09:26:00;18.50;64.40
10447;DHT22;5271;44.422;26.092;2023-02-16T09:28:28;18.80;63.80
10447;DHT22;5271;44.422;26.092;2023-02-16T09:30:55;19.20;62.90
10447;DHT22;5271;44.422;26.092;2023-02-16T09:33:23;19.30;61.80
10447;DHT22;5271;44.422;26.092;2023-02-16T09:35:50;19.40;62.40
10447;DHT22;5271;44.422;26.092;2023-02-16T09:38:17;19.50;62.80
10447;DHT22;5271;44.422;26.092;2023-02-16T09:40:46;19.80;62.50
10447;DHT22;5271;44.422;26.092;2023-02-16T09:43:18;20.10;60.70
10447;DHT22;5271;44.422;26.092;2023-02-16T09:45:53;20.60;59.80
10447;DHT22;5271;44.422;26.092;2023-02-16T09:48:29;20.80;60.00
10447;DHT22;5271;44.422;26.092;2023-02-16T09:51:00;21.10;58.90
10447;DHT22;5271;44.422;26.092;2023-02-16T09:53:34;21.20;57.60
10447;DHT22;5271;44.422;26.092;2023-02-16T09:56:10;21.10;57.50
10447;DHT22;5271;44.422;26.092;2023-02-16T09:58:44;21.20;56.80
10447;DHT22;5271;44.422;26.092;2023-02-16T10:01:18;21.20;57.80
10447;DHT22;5271;44.422;26.092;2023-02-16T10:03:53;21.60;57.00
10447;DHT22;5271;44.422;26.092;2023-02-16T10:06:28;21.70;56.40
10447;DHT22;5271;44.422;26.092;2023-02-16T10:09:03;21.90;56.40
10447;DHT22;5271;44.422;26.092;2023-02-16T10:11:35;22.50;56.10
10447;DHT22;5271;44.422;26.092;2023-02-16T10:14:12;22.80;54.30
10447;DHT22;5271;44.422;26.092;2023-02-16T10:16:55;22.90;54.90
10447;DHT22;5271;44.422;26.092;2023-02-16T10:19:27;23.40;53.70
10447;DHT22;5271;44.422;26.092;2023-02-16T10:21:57;23.70;53.10
10447;DHT22;5271;44.422;26.092;2023-02-16T10:24:27;23.60;52.40
10447;DHT22;5271;44.422;26.092;2023-02-16T10:27:01;23.30;52.30
10447;DHT22;5271;44.422;26.092;2023-02-16T10:29:28;23.00;53.10
10447;DHT22;5271;44.422;26.092;2023-02-16T10:32:06;22.70;53.90
10447;DHT22;5271;44.422;26.092;2023-02-16T10:34:46;22.50;53.20
10447;DHT22;5271;44.422;26.092;2023-02-16T10:37:24;21.80;53.60
10447;DHT22;5271;44.422;26.092;2023-02-16T10:40:13;21.30;55.50
10447;DHT22;5271;44.422;26.092;2023-02-16T10:42:47;20.90;55.70
10447;DHT22;5271;44.422;26.092;2023-02-16T10:45:23;20.30;55.60
10447;DHT22;5271;44.422;26.092;2023-02-16T10:47:54;19.70;56.20
10447;DHT22;5271;44.422;26.092;2023-02-16T10:50:24;19.00;57.50
10447;DHT22;5271;44.422;26.092;2023-02-16T10:52:57;18.70;58.20
10447;DHT22;5271;44.422;26.092;2023-02-16T10:55:25;18.60;59.10
10447;DHT22;5271;44.422;26.092;2023-02-16T10:57:53;18.40;59.10
10447;DHT22;5271;44.422;26.092;2023-02-16T11:00:25;18.10;59.70
10447;DHT22;5271;44.422;26.092;2023-02-16T11:02:55;18.10;60.00
10447;DHT22;5271;44.422;26.092;2023-02-16T11:05:31;18.10;60.00
10447;DHT22;5271;44.422;26.092;2023-02-16T11:07:59;17.90;60.00
10447;DHT22;5271;44.422;26.092;2023-02-16T11:10:38;17.60;59.40
10447;DHT22;5271;44.422;26.092;2023-02-16T11:13:07;17.50;60.30
10447;DHT22;5271;44.422;26.092;2023-02-16T11:15:42;17.40;60.60
10447;DHT22;5271;44.422;26.092;2023-02-16T11:18:28;17.30;61.40
10447;DHT22;5271;44.422;26.092;2023-02-16T11:20:56;17.40;61.50
10447;DHT22;5271;44.422;26.092;2023-02-16T11:23:24;17.30;61.70
10447;DHT22;5271;44.422;26.092;2023-02-16T11:25:57;17.40;62.10
10447;DHT22;5271;44.422;26.092;2023-02-16T11:28:26;17.30;62.10
10447;DHT22;5271;44.422;26.092;2023-02-16T11:33:53;17.30;62.00
10447;DHT22;5271;44.422;26.092;2023-02-16T11:36:26;17.30;62.50
10447;DHT22;5271;44.422;26.092;2023-02-16T11:38:57;17.50;62.70
10447;DHT22;5271;44.422;26.092;2023-02-16T11:41:25;17.60;62.40
10447;DHT22;5271;44.422;26.092;2023-02-16T11:43:53;17.70;61.70
10447;DHT22;5271;44.422;26.092;2023-02-16T11:46:22;17.80;61.80
10447;DHT22;5271;44.422;26.092;2023-02-16T11:48:51;17.80;61.30
10447;DHT22;5271;44.422;26.092;2023-02-16T11:51:32;17.70;61.30
10447;DHT22;5271;44.422;26.092;2023-02-16T11:54:03;17.40;61.60
10447;DHT22;5271;44.422;26.092;2023-02-16T11:56:33;17.30;62.00
10447;DHT22;5271;44.422;26.092;2023-02-16T11:59:13;17.40;62.70
10447;DHT22;5271;44.422;26.092;2023-02-16T12:01:59;17.40;62.10
10447;DHT22;5271;44.422;26.092;2023-02-16T12:04:51;17.40;62.10
10447;DHT22;5271;44.422;26.092;2023-02-16T12:07:28;17.30;62.10
10447;DHT22;5271;44.422;26.092;2023-02-16T12:10:03;17.40;62.20
10447;DHT22;5271;44.422;26.092;2023-02-16T12:12:41;17.30;61.50
10447;DHT22;5271;44.422;26.092;2023-02-16T12:15:16;17.30;61.00
10447;DHT22;5271;44.422;26.092;2023-02-16T12:18:02;17.20;61.30
10447;DHT22;5271;44.422;26.092;2023-02-16T12:20:43;17.10;61.80
10447;DHT22;5271;44.422;26.092;2023-02-16T12:23:27;17.10;62.10
10447;DHT22;5271;44.422;26.092;2023-02-16T12:26:08;17.10;61.60
10447;DHT22;5271;44.422;26.092;2023-02-16T12:28:43;17.00;61.00
10447;DHT22;5271;44.422;26.092;2023-02-16T12:31:19;16.90;60.90
10447;DHT22;5271;44.422;26.092;2023-02-16T12:33:52;16.80;61.30
10447;DHT22;5271;44.422;26.092;2023-02-16T12:36:45;16.70;61.60
10447;DHT22;5271;44.422;26.092;2023-02-16T12:39:17;16.60;61.70
10447;DHT22;5271;44.422;26.092;2023-02-16T12:41:57;16.60;62.20
10447;DHT22;5271;44.422;26.092;2023-02-16T12:44:31;16.50;62.30
10447;DHT22;5271;44.422;26.092;2023-02-16T12:47:01;16.60;62.50
10447;DHT22;5271;44.422;26.092;2023-02-16T12:49:35;16.60;62.40
10447;DHT22;5271;44.422;26.092;2023-02-16T12:52:11;16.70;62.50
10447;DHT22;5271;44.422;26.092;2023-02-16T12:54:45;16.70;62.50
10447;DHT22;5271;44.422;26.092;2023-02-16T12:57:15;16.80;62.10
10447;DHT22;5271;44.422;26.092;2023-02-16T12:59:47;16.80;62.20
10447;DHT22;5271;44.422;26.092;2023-02-16T13:02:20;16.70;62.10
10447;DHT22;5271;44.422;26.092;2023-02-16T13:04:50;16.70;62.20
10447;DHT22;5271;44.422;26.092;2023-02-16T13:07:27;16.70;62.20
10447;DHT22;5271;44.422;26.092;2023-02-16T13:10:00;16.70;62.40
10447;DHT22;5271;44.422;26.092;2023-02-16T13:12:33;16.70;61.60
10447;DHT22;5271;44.422;26.092;2023-02-16T13:15:08;16.60;61.40
10447;DHT22;5271;44.422;26.092;2023-02-16T13:17:39;16.60;61.60
10447;DHT22;5271;44.422;26.092;2023-02-16T13:20:12;16.50;61.80
10447;DHT22;5271;44.422;26.092;2023-02-16T13:23:18;16.50;61.80
10447;DHT22;5271;44.422;26.092;2023-02-16T13:26:11;16.50;61.90
10447;DHT22;5271;44.422;26.092;2023-02-16T13:29:03;16.50;61.50
10447;DHT22;5271;44.422;26.092;2023-02-16T13:31:45;16.50;61.50
10447;DHT22;5271;44.422;26.092;2023-02-16T13:34:35;16.60;61.80
10447;DHT22;5271;44.422;26.092;2023-02-16T13:37:21;16.60;61.60
10447;DHT22;5271;44.422;26.092;2023-02-16T13:43:13;16.70;61.00
10447;DHT22;5271;44.422;26.092;2023-02-16T13:45:46;16.70;61.30
10447;DHT22;5271;44.422;26.092;2023-02-16T13:48:22;16.70;61.30
10447;DHT22;5271;44.422;26.092;2023-02-16T13:50:56;16.80;61.10
10447;DHT22;5271;44.422;26.092;2023-02-16T13:53:24;16.80;61.10
10447;DHT22;5271;44.422;26.092;2023-02-16T13:56:17;16.80;61.20
10447;DHT22;5271;44.422;26.092;2023-02-16T13:58:47;16.80;60.90
10447;DHT22;5271;44.422;26.092;2023-02-16T14:01:33;16.70;61.30
10447;DHT22;5271;44.422;26.092;2023-02-16T14:04:04;16.80;61.30
10447;DHT22;5271;44.422;26.092;2023-02-16T14:06:33;16.80;60.00
10447;DHT22;5271;44.422;26.092;2023-02-16T14:09:30;16.80;60.20
10447;DHT22;5271;44.422;26.092;2023-02-16T14:12:14;16.80;59.90
10447;DHT22;5271;44.422;26.092;2023-02-16T14:14:45;16.80;59.50
10447;DHT22;5271;44.422;26.092;2023-02-16T14:17:26;16.80;59.70
10447;DHT22;5271;44.422;26.092;2023-02-16T14:19:56;16.70;59.60
10447;DHT22;5271;44.422;26.092;2023-02-16T14:22:28;16.80;59.30
10447;DHT22;5271;44.422;26.092;2023-02-16T14:24:58;16.80;59.70
10447;DHT22;5271;44.422;26.092;2023-02-16T14:27:43;16.80;59.90
10447;DHT22;5271;44.422;26.092;2023-02-16T14:30:28;16.80;59.80
10447;DHT22;5271;44.422;26.092;2023-02-16T14:33:00;16.90;59.80
10447;DHT22;5271;44.422;26.092;2023-02-16T14:35:32;16.90;59.80
10447;DHT22;5271;44.422;26.092;2023-02-16T14:38:01;17.00;59.30
10447;DHT22;5271;44.422;26.092;2023-02-16T14:40:50;17.00;59.50
10447;DHT22;5271;44.422;26.092;2023-02-16T14:43:26;17.00;59.10
10447;DHT22;5271;44.422;26.092;2023-02-16T14:46:17;17.00;59.30
10447;DHT22;5271;44.422;26.092;2023-02-16T14:58:34;17.10;58.70
10447;DHT22;5271;44.422;26.092;2023-02-16T15:01:09;17.00;58.30
10447;DHT22;5271;44.422;26.092;2023-02-16T15:03:39;17.00;58.50
10447;DHT22;5271;44.422;26.092;2023-02-16T15:06:07;17.00;58.50
10447;DHT22;5271;44.422;26.092;2023-02-16T15:08:43;17.10;59.00
10447;DHT22;5271;44.422;26.092;2023-02-16T15:11:15;17.10;59.00
10447;DHT22;5271;44.422;26.092;2023-02-16T15:13:46;17.20;58.40
10447;DHT22;5271;44.422;26.092;2023-02-16T15:16:17;17.20;58.60
10447;DHT22;5271;44.422;26.092;2023-02-16T15:18:46;17.20;58.70
10447;DHT22;5271;44.422;26.092;2023-02-16T15:21:18;17.20;58.50
10447;DHT22;5271;44.422;26.092;2023-02-16T15:23:49;17.20;58.80
10447;DHT22;5271;44.422;26.092;2023-02-16T15:26:19;17.20;58.70
10447;DHT22;5271;44.422;26.092;2023-02-16T15:28:55;17.20;58.70
10447;DHT22;5271;44.422;26.092;2023-02-16T15:31:26;17.20;57.60
10447;DHT22;5271;44.422;26.092;2023-02-16T15:33:57;17.30;56.70
10447;DHT22;5271;44.422;26.092;2023-02-16T15:36:31;17.20;56.80
10447;DHT22;5271;44.422;26.092;2023-02-16T15:38:59;17.20;56.10
10447;DHT22;5271;44.422;26.092;2023-02-16T15:41:28;17.20;56.90
10447;DHT22;5271;44.422;26.092;2023-02-16T15:43:58;17.20;56.60
10447;DHT22;5271;44.422;26.092;2023-02-16T15:46:29;17.10;56.10
10447;DHT22;5271;44.422;26.092;2023-02-16T15:48:56;17.10;55.70
10447;DHT22;5271;44.422;26.092;2023-02-16T15:51:26;17.10;55.40
10447;DHT22;5271;44.422;26.092;2023-02-16T15:53:58;17.10;55.10
10447;DHT22;5271;44.422;26.092;2023-02-16T15:56:34;17.10;54.40
10447;DHT22;5271;44.422;26.092;2023-02-16T15:59:17;17.20;55.00
10447;DHT22;5271;44.422;26.092;2023-02-16T16:01:47;17.10;55.20
10447;DHT22;5271;44.422;26.092;2023-02-16T16:04:17;17.10;55.70
10447;DHT22;5271;44.422;26.092;2023-02-16T16:06:47;17.10;55.80
10447;DHT22;5271;44.422;26.092;2023-02-16T16:09:20;17.20;55.90
10447;DHT22;5271;44.422;26.092;2023-02-16T16:11:48;17.10;56.20
10447;DHT22;5271;44.422;26.092;2023-02-16T16:14:18;17.10;56.50
10447;DHT22;5271;44.422;26.092;2023-02-16T16:16:45;17.00;56.70
10447;DHT22;5271;44.422;26.092;2023-02-16T16:19:14;17.00;56.80
10447;DHT22;5271;44.422;26.092;2023-02-16T16:21:49;17.00;56.70
10447;DHT22;5271;44.422;26.092;2023-02-16T16:24:36;17.10;56.90
10447;DHT22;5271;44.422;26.092;2023-02-16T16:27:06;17.00;56.50